Time;durP1;ratioP1;P1;durP2;ratioP2;P2;SDS_P1;SDS_P2;PMS_P1;PMS_P2;Temp;Humidity;BMP_temperature;BMP_pressure;BME280_temperature;BME280_humidity;BME280_pressure;Samples;Min_cycle;Max_cycle;Signal;HPM_P1;HPM_P2
2023/09/21 00:01:13;;;;;;;4.10;2.30;;;;;;;25.00;66.28;100732.72;4999651;28;20057;-58
2023/09/21 00:03:41;;;;;;;4.30;2.40;;;;;;;25.01;66.00;100737.13;4999261;28;20058;-58
2023/09/21 00:06:09;;;;;;;3.97;1.80;;;;;;;25.01;66.22;100742.53;5000861;28;20051;-59
2023/09/21 00:08:37;;;;;;;4.40;2.30;;;;;;;25.01;65.77;100739.84;5002354;28;20057;-61
2023/09/21 00:11:04;;;;;;;3.70;2.13;;;;;;;25.01;65.88;100739.84;4999345;28;20049;-60
2023/09/21 00:13:32;;;;;;;4.90;2.67;;;;;;;25.02;66.04;100741.50;4999179;28;20053;-60
2023/09/21 00:16:00;;;;;;;3.58;2.10;;;;;;;25.01;65.71;100722.75;5001096;28;20050;-60
2023/09/21 00:18:32;;;;;;;3.97;2.30;;;;;;;25.01;65.57;100729.00;5001940;28;20472;-59
2023/09/21 00:21:01;;;;;;;4.85;2.33;;;;;;;25.01;65.11;100722.75;4999089;28;20072;-58
2023/09/21 00:23:31;;;;;;;3.42;2.50;;;;;;;25.01;65.06;100718.16;4999380;28;20046;-59
2023/09/21 00:25:58;;;;;;;3.25;2.05;;;;;;;25.01;65.30;100720.88;5006140;28;20057;-59
2023/09/21 00:28:30;;;;;;;4.22;2.40;;;;;;;25.02;65.53;100717.13;4995003;28;20046;-59
2023/09/21 00:30:58;;;;;;;3.00;2.28;;;;;;;25.02;65.25;100714.44;5002939;28;20050;-59
2023/09/21 00:33:28;;;;;;;3.55;2.17;;;;;;;25.01;65.38;100699.22;5003021;28;20050;-59
2023/09/21 00:35:58;;;;;;;3.50;2.10;;;;;;;25.03;65.19;100704.44;5004476;28;20052;-59
2023/09/21 00:38:27;;;;;;;3.30;2.00;;;;;;;25.01;65.10;100718.16;5000271;28;20079;-60
2023/09/21 00:41:03;;;;;;;3.83;2.55;;;;;;;25.02;64.82;100711.72;5002313;28;20061;-61
2023/09/21 00:43:31;;;;;;;3.78;2.25;;;;;;;25.02;64.70;100714.44;5002680;28;20416;-60
2023/09/21 00:46:01;;;;;;;3.55;2.17;;;;;;;25.03;64.76;100704.44;5002668;28;20046;-61
2023/09/21 00:48:33;;;;;;;3.75;1.95;;;;;;;25.01;64.69;100704.63;5004446;28;20057;-59
2023/09/21 00:51:12;;;;;;;3.38;1.98;;;;;;;25.02;64.84;100703.59;5012335;28;20504;-59
2023/09/21 00:53:44;;;;;;;5.00;2.30;;;;;;;25.02;64.76;100714.44;5010377;28;20404;-59
2023/09/21 00:56:14;;;;;;;3.95;2.50;;;;;;;25.02;64.73;100698.19;5007867;28;20046;-59
2023/09/21 00:58:48;;;;;;;4.25;2.97;;;;;;;25.01;64.20;100696.50;5012956;28;20041;-59
2023/09/21 01:01:18;;;;;;;4.97;2.60;;;;;;;25.03;64.25;100693.59;5008111;28;20054;-59
2023/09/21 01:03:46;;;;;;;3.83;2.25;;;;;;;25.01;64.17;100685.66;5012235;28;20054;-59
2023/09/21 01:06:18;;;;;;;3.00;2.08;;;;;;;25.02;64.02;100695.47;5010766;28;20054;-58
2023/09/21 01:08:47;;;;;;;3.70;2.38;;;;;;;25.02;63.98;100679.22;5011937;28;20508;-59
2023/09/21 01:11:15;;;;;;;3.85;2.35;;;;;;;25.01;63.80;100672.13;5009059;28;20080;-59
2023/09/21 01:13:42;;;;;;;3.67;2.20;;;;;;;25.01;63.88;100668.56;5012741;28;20053;-59
2023/09/21 01:16:15;;;;;;;3.80;2.50;;;;;;;25.00;63.45;100670.44;5012577;28;20381;-59
2023/09/21 01:18:43;;;;;;;3.88;2.85;;;;;;;25.02;63.08;100656.72;5007295;28;20057;-60
2023/09/21 01:21:13;;;;;;;4.90;3.03;;;;;;;25.01;63.33;100653.16;5008522;28;20061;-60
2023/09/21 01:23:53;;;;;;;4.47;2.67;;;;;;;25.01;63.56;100647.75;5012198;28;20050;-60
2023/09/21 01:26:20;;;;;;;5.57;2.58;;;;;;;25.02;64.05;100648.59;5012177;28;20057;-60
2023/09/21 01:28:48;;;;;;;3.67;2.38;;;;;;;25.01;63.96;100642.31;5007572;28;20061;-59
2023/09/21 01:31:17;;;;;;;4.22;2.42;;;;;;;25.02;64.36;100649.44;5010175;28;20047;-59
2023/09/21 01:33:46;;;;;;;2.92;1.95;;;;;;;25.02;64.42;100638.59;5011978;28;20050;-59
2023/09/21 01:36:15;;;;;;;3.55;2.22;;;;;;;25.02;64.55;100643.16;5011878;28;20038;-60
2023/09/21 01:38:46;;;;;;;2.88;2.08;;;;;;;25.04;64.79;100657.41;5008842;28;20057;-61
2023/09/21 01:41:17;;;;;;;4.07;2.30;;;;;;;25.03;64.43;100661.94;5007054;28;20049;-60
2023/09/21 01:43:44;;;;;;;3.85;2.15;;;;;;;25.03;64.38;100653.81;5012007;28;20488;-60
2023/09/21 01:46:14;;;;;;;6.38;2.50;;;;;;;25.03;64.20;100645.69;5010872;28;20056;-60
2023/09/21 01:48:41;;;;;;;2.90;2.03;;;;;;;25.03;64.30;100628.59;5008120;28;20409;-59
2023/09/21 01:51:12;;;;;;;3.67;2.10;;;;;;;25.03;64.50;100632.16;5011831;28;20050;-58
2023/09/21 01:53:40;;;;;;;4.40;2.58;;;;;;;25.02;64.40;100614.22;5010495;28;20057;-58
2023/09/21 01:56:07;;;;;;;5.03;2.65;;;;;;;25.03;63.87;100606.94;5009191;28;20518;-58
2023/09/21 01:58:35;;;;;;;4.45;3.10;;;;;;;25.03;63.64;100605.06;5007894;28;20050;-60
2023/09/21 02:01:03;;;;;;;4.40;2.65;;;;;;;25.03;63.47;100602.34;5010278;28;20059;-60
2023/09/21 02:03:31;;;;;;;4.88;2.45;;;;;;;25.02;63.00;100597.13;5011669;28;20373;-60
2023/09/21 02:06:00;;;;;;;5.47;3.17;;;;;;;25.02;62.76;100589.84;4987658;28;20061;-60
2023/09/21 02:08:27;;;;;;;4.18;2.92;;;;;;;25.02;63.21;100587.13;5009805;28;20046;-59
2023/09/21 02:10:55;;;;;;;3.92;2.60;;;;;;;25.01;63.34;100574.63;5012028;28;20049;-59
2023/09/21 02:13:22;;;;;;;3.38;2.13;;;;;;;25.01;63.38;100571.91;5010120;28;20062;-59
2023/09/21 02:15:51;;;;;;;4.43;2.65;;;;;;;25.02;63.35;100562.75;5007702;28;20057;-58
2023/09/21 02:18:20;;;;;;;7.07;2.50;;;;;;;25.02;63.38;100554.63;5010362;28;20049;-59
2023/09/21 02:20:54;;;;;;;3.58;2.38;;;;;;;25.02;63.41;100549.22;5011056;28;20057;-59
2023/09/21 02:23:26;;;;;;;3.97;2.58;;;;;;;25.02;63.57;100556.50;5011263;28;20049;-59
2023/09/21 02:25:53;;;;;;;3.95;2.53;;;;;;;25.02;63.61;100557.34;5003627;28;20397;-59
2023/09/21 02:28:23;;;;;;;4.20;2.72;;;;;;;25.03;63.46;100558.19;5011062;28;20045;-59
2023/09/21 02:30:51;;;;;;;6.18;2.97;;;;;;;25.01;63.36;100547.53;5009940;28;20057;-59
2023/09/21 02:33:22;;;;;;;4.20;3.03;;;;;;;25.02;63.26;100549.22;5010916;28;20074;-59
2023/09/21 02:35:50;;;;;;;3.42;2.42;;;;;;;25.01;63.27;100538.56;5008097;28;20061;-58
2023/09/21 02:38:20;;;;;;;3.40;2.42;;;;;;;25.02;63.36;100551.94;5010322;28;20066;-60
2023/09/21 02:40:48;;;;;;;4.90;2.47;;;;;;;25.02;63.27;100546.50;5009580;28;20046;-60
2023/09/21 02:43:17;;;;;;;4.38;2.50;;;;;;;25.02;62.79;100551.09;5009684;28;20473;-61
2023/09/21 02:45:45;;;;;;;5.90;2.63;;;;;;;25.01;62.91;100542.13;5007250;28;20054;-59
2023/09/21 02:48:15;;;;;;;4.22;2.70;;;;;;;25.02;62.65;100548.38;5009118;28;20049;-59
2023/09/21 02:50:48;;;;;;;3.90;2.50;;;;;;;25.02;62.58;100534.84;5010524;28;20042;-59
2023/09/21 02:53:17;;;;;;;4.38;2.50;;;;;;;25.01;62.66;100539.41;5007669;28;20058;-58
2023/09/21 02:55:50;;;;;;;5.63;2.53;;;;;;;25.01;62.52;100536.69;5008305;28;20065;-59
2023/09/21 02:58:19;;;;;;;4.03;2.53;;;;;;;25.00;62.29;100535.03;5008962;28;20382;-59
2023/09/21 03:00:51;;;;;;;3.55;2.55;;;;;;;25.00;62.28;100532.31;5008927;28;20053;-58
2023/09/21 03:03:20;;;;;;;4.18;2.67;;;;;;;25.01;62.09;100528.56;5005497;28;20057;-58
2023/09/21 03:05:49;;;;;;;4.75;3.38;;;;;;;25.01;62.33;100528.56;5025013;28;20061;-58
2023/09/21 03:08:18;;;;;;;3.97;2.63;;;;;;;25.01;62.14;100522.31;5008995;28;20420;-60
2023/09/21 03:10:59;;;;;;;4.00;2.92;;;;;;;25.01;62.21;100503.38;5005417;28;20050;-59
2023/09/21 03:13:27;;;;;;;3.92;2.42;;;;;;;25.01;62.77;100512.31;5007765;28;20054;-59
2023/09/21 03:15:58;;;;;;;6.47;3.25;;;;;;;25.01;62.75;100515.03;5010197;28;20385;-60
2023/09/21 03:18:29;;;;;;;4.55;2.72;;;;;;;25.02;63.20;100524.00;5009254;28;20058;-60
2023/09/21 03:20:57;;;;;;;4.53;2.83;;;;;;;25.00;63.27;100520.63;5004554;28;20050;-59
2023/09/21 03:23:27;;;;;;;4.68;3.00;;;;;;;25.02;63.18;100522.13;5008141;28;20046;-59
2023/09/21 03:25:55;;;;;;;4.22;2.50;;;;;;;25.01;63.10;100515.03;5009991;28;20096;-59
2023/09/21 03:28:24;;;;;;;4.20;2.55;;;;;;;25.02;63.32;100516.72;5009631;28;20061;-60
2023/09/21 03:30:56;;;;;;;4.50;2.63;;;;;;;25.02;62.96;100507.75;5004831;28;20050;-59
2023/09/21 03:33:24;;;;;;;4.13;2.78;;;;;;;25.02;63.11;100511.31;5007993;28;20065;-59
2023/09/21 03:35:51;;;;;;;4.03;2.65;;;;;;;25.02;62.95;100505.03;5008653;28;20076;-59
2023/09/21 03:38:21;;;;;;;3.17;2.28;;;;;;;25.02;63.04;100503.16;5008519;28;20062;-61
2023/09/21 03:40:49;;;;;;;5.57;2.78;;;;;;;25.01;62.85;100508.78;5005765;28;20046;-61
2023/09/21 03:43:18;;;;;;;4.13;2.50;;;;;;;24.99;62.68;100497.25;5009925;28;20050;-61
2023/09/21 03:45:47;;;;;;;4.53;3.03;;;;;;;24.96;62.62;100486.81;5008506;28;20046;-60
2023/09/21 03:48:16;;;;;;;4.03;2.83;;;;;;;24.92;62.29;100497.16;5005698;28;20054;-60
2023/09/21 03:50:44;;;;;;;4.80;3.00;;;;;;;24.89;62.25;100484.78;5006128;28;20057;-60
2023/09/21 03:53:14;;;;;;;4.20;2.65;;;;;;;24.88;62.24;100479.56;5007777;28;20065;-60
2023/09/21 03:55:42;;;;;;;4.28;2.65;;;;;;;24.86;62.30;100477.00;5008313;28;20071;-61
2023/09/21 03:58:10;;;;;;;4.82;3.17;;;;;;;24.86;61.85;100479.72;5021861;28;20065;-61
2023/09/21 04:00:38;;;;;;;3.95;2.85;;;;;;;24.85;61.92;100485.31;5006832;28;20121;-60
2023/09/21 04:03:08;;;;;;;3.60;2.58;;;;;;;24.83;61.90;100487.34;5024261;28;20066;-60
2023/09/21 04:06:02;;;;;;;5.30;3.25;;;;;;;24.82;62.05;100481.09;5004439;28;20104;-60
2023/09/21 04:08:31;;;;;;;5.10;3.22;;;;;;;24.81;62.01;100484.84;5008249;28;20046;-60
2023/09/21 04:10:59;;;;;;;6.15;2.70;;;;;;;24.81;61.73;100468.59;5007891;28;20050;-60
2023/09/21 04:13:27;;;;;;;4.85;2.67;;;;;;;24.80;61.93;100480.44;5007685;28;20412;-60
2023/09/21 04:15:54;;;;;;;4.88;2.88;;;;;;;24.79;62.08;100472.47;5005121;28;20381;-60
2023/09/21 04:18:22;;;;;;;4.55;2.97;;;;;;;24.78;61.80;100474.34;5006620;28;20065;-61
2023/09/21 04:20:53;;;;;;;5.88;3.28;;;;;;;24.78;61.89;100470.81;5008618;28;20065;-61
2023/09/21 04:23:41;;;;;;;6.85;2.97;;;;;;;24.77;61.82;100466.41;5019102;28;20057;-61
2023/09/21 04:26:10;;;;;;;4.95;3.10;;;;;;;24.77;61.60;100471.84;5006370;28;20054;-61
2023/09/21 04:28:39;;;;;;;4.25;2.80;;;;;;;24.77;61.70;100478.09;5007758;28;20049;-60
2023/09/21 04:31:09;;;;;;;4.25;2.63;;;;;;;24.77;62.04;100478.09;5009551;28;20042;-60
2023/09/21 04:33:37;;;;;;;4.65;3.08;;;;;;;24.78;61.79;100473.50;5020450;28;20054;-60
2023/09/21 04:36:05;;;;;;;4.25;2.88;;;;;;;24.77;62.06;100475.38;5002537;28;20065;-60
2023/09/21 04:38:33;;;;;;;3.80;2.78;;;;;;;24.76;61.43;100470.16;5008083;28;20061;-61
2023/09/21 04:41:01;;;;;;;3.75;2.65;;;;;;;24.75;61.84;100469.28;5007895;28;20063;-61
2023/09/21 04:43:28;;;;;;;5.00;3.08;;;;;;;24.74;61.72;100464.91;5020167;28;20054;-61
2023/09/21 04:45:56;;;;;;;4.47;2.97;;;;;;;24.73;61.87;100457.81;5007006;28;20053;-61
2023/09/21 04:48:24;;;;;;;4.55;2.85;;;;;;;24.73;61.74;100462.38;5023867;28;20064;-61
2023/09/21 04:50:51;;;;;;;6.90;3.85;;;;;;;24.73;61.60;100456.97;5009408;28;20049;-61
2023/09/21 04:53:19;;;;;;;3.80;2.88;;;;;;;24.72;61.55;100461.53;5006707;28;20065;-61
2023/09/21 04:55:49;;;;;;;4.20;2.53;;;;;;;24.72;61.78;100452.56;5007201;28;20066;-61
2023/09/21 04:58:19;;;;;;;4.20;3.20;;;;;;;24.72;61.70;100453.41;5007483;28;20061;-61
2023/09/21 05:00:46;;;;;;;4.68;2.80;;;;;;;24.71;61.69;100454.41;5024066;28;20045;-61
2023/09/21 05:03:16;;;;;;;7.38;2.90;;;;;;;24.69;61.86;100463.75;5000608;28;20058;-61
2023/09/21 05:05:44;;;;;;;5.13;3.20;;;;;;;24.69;61.76;100463.75;5003070;28;20389;-61
2023/09/21 05:08:12;;;;;;;5.50;2.55;;;;;;;24.69;61.63;100458.34;5009070;28;20080;-61
2023/09/21 05:10:42;;;;;;;3.30;2.55;;;;;;;24.69;61.75;100469.16;5008296;28;20045;-60
2023/09/21 05:13:10;;;;;;;6.65;3.53;;;;;;;24.68;61.64;100471.03;5004744;28;20054;-60
2023/09/21 05:15:38;;;;;;;5.65;3.10;;;;;;;24.67;61.67;100472.91;5008736;28;20485;-60
2023/09/21 05:18:07;;;;;;;7.30;3.42;;;;;;;24.66;61.75;100471.19;5008756;28;20061;-60
2023/09/21 05:20:35;;;;;;;5.38;2.80;;;;;;;24.66;61.64;100471.19;5007868;28;20042;-61
2023/09/21 05:23:04;;;;;;;5.28;2.60;;;;;;;24.66;61.45;100473.88;5006234;28;20057;-61
2023/09/21 05:25:32;;;;;;;5.75;3.15;;;;;;;24.67;61.54;100469.31;5008632;28;20050;-61
2023/09/21 05:27:59;;;;;;;4.35;2.78;;;;;;;24.66;61.46;100471.19;5008833;28;20054;-61
2023/09/21 05:30:28;;;;;;;4.82;2.45;;;;;;;24.67;61.65;100466.59;5007254;28;20053;-60
2023/09/21 05:32:56;;;;;;;4.00;3.05;;;;;;;24.66;61.52;100467.63;5007850;28;20057;-60
2023/09/21 05:35:24;;;;;;;6.55;3.20;;;;;;;24.67;61.62;100474.72;5012239;28;20050;-60
2023/09/21 05:37:51;;;;;;;5.70;2.83;;;;;;;24.67;61.54;100477.44;5012092;28;20400;-60
2023/09/21 05:40:18;;;;;;;3.95;2.83;;;;;;;24.67;61.66;100467.47;5009268;28;20054;-60
2023/09/21 05:42:47;;;;;;;4.20;3.00;;;;;;;24.68;61.75;100454.78;5009402;28;20050;-61
2023/09/21 05:45:14;;;;;;;3.67;2.90;;;;;;;24.67;61.92;100459.38;5012055;28;20488;-61
2023/09/21 05:47:42;;;;;;;5.47;3.10;;;;;;;24.68;61.67;100465.63;5012296;28;20046;-60
2023/09/21 05:50:09;;;;;;;5.55;3.33;;;;;;;24.69;61.90;100463.75;5007948;28;20046;-60
2023/09/21 05:52:37;;;;;;;4.88;2.78;;;;;;;24.67;61.93;100461.19;5009568;28;20038;-60
2023/09/21 05:55:04;;;;;;;4.75;3.20;;;;;;;24.66;61.74;100457.66;5011751;28;20049;-60
2023/09/21 05:57:32;;;;;;;5.43;2.80;;;;;;;24.67;61.66;100462.06;5011794;28;20055;-60
2023/09/21 05:59:59;;;;;;;5.03;2.97;;;;;;;24.66;61.96;100454.94;5010075;28;20053;-61
2023/09/21 06:02:27;;;;;;;4.82;3.20;;;;;;;24.66;61.88;100462.22;5009461;28;20405;-61
2023/09/21 06:04:55;;;;;;;4.38;3.47;;;;;;;24.66;62.04;100464.94;5011554;28;20046;-61
2023/09/21 06:07:24;;;;;;;5.15;3.58;;;;;;;24.66;61.95;100465.78;5011422;28;20423;-60
2023/09/21 06:09:52;;;;;;;3.78;2.92;;;;;;;24.66;62.09;100460.34;5009836;28;20042;-60
2023/09/21 06:12:19;;;;;;;5.40;3.42;;;;;;;24.65;61.73;100460.53;5009442;28;20046;-60
2023/09/21 06:14:50;;;;;;;5.35;3.33;;;;;;;24.65;61.80;100453.25;5011532;28;20404;-60
2023/09/21 06:17:18;;;;;;;5.47;3.50;;;;;;;24.66;61.62;100451.41;5011474;28;20054;-61
2023/09/21 06:19:46;;;;;;;6.60;3.92;;;;;;;24.66;61.90;100460.34;5008972;28;20052;-61
2023/09/21 06:22:13;;;;;;;5.05;3.25;;;;;;;24.67;61.73;100458.50;5009754;28;20073;-61
2023/09/21 06:24:44;;;;;;;4.93;3.33;;;;;;;24.68;61.75;100460.19;5011036;28;20045;-61
2023/09/21 06:27:13;;;;;;;6.20;3.15;;;;;;;24.67;61.95;100464.78;5011367;28;20435;-61
2023/09/21 06:29:41;;;;;;;4.22;3.10;;;;;;;24.69;61.71;100458.34;5007967;28;20061;-61
2023/09/21 06:32:10;;;;;;;4.07;2.83;;;;;;;24.69;61.77;100450.22;5010307;28;20049;-60
2023/09/21 06:34:42;;;;;;;4.07;2.75;;;;;;;24.70;61.77;100457.31;5011247;28;20053;-61
2023/09/21 06:37:12;;;;;;;5.32;3.63;;;;;;;24.71;61.86;100461.69;5010642;28;20061;-61
2023/09/21 06:39:40;;;;;;;4.88;3.05;;;;;;;24.71;61.95;100461.69;5007561;28;20050;-60
2023/09/21 06:42:07;;;;;;;5.50;3.55;;;;;;;24.72;61.94;100468.81;5010703;28;20049;-60
2023/09/21 06:44:36;;;;;;;4.68;3.50;;;;;;;24.74;61.88;100472.19;5000446;28;20057;-60
2023/09/21 06:47:04;;;;;;;5.65;3.67;;;;;;;24.74;61.85;100483.00;5010539;28;20050;-59
2023/09/21 06:49:34;;;;;;;5.35;4.03;;;;;;;24.75;61.91;100490.94;5007927;28;20073;-60
2023/09/21 06:52:03;;;;;;;6.78;3.75;;;;;;;24.77;61.79;100485.38;5010836;28;20377;-60
2023/09/21 06:54:31;;;;;;;6.07;3.42;;;;;;;24.76;61.83;100489.94;5010596;28;20053;-60
2023/09/21 06:57:03;;;;;;;6.85;3.22;;;;;;;24.79;61.68;100486.03;4999860;28;20516;-62
2023/09/21 06:59:34;;;;;;;4.65;3.30;;;;;;;24.80;61.83;100493.16;4999744;28;20061;-60
2023/09/21 07:02:06;;;;;;;6.38;3.80;;;;;;;24.81;61.86;100492.97;5002846;28;20069;-64
2023/09/21 07:04:34;;;;;;;6.47;3.20;;;;;;;24.85;61.76;100497.00;5001166;28;20056;-62
2023/09/21 07:07:06;;;;;;;5.75;3.38;;;;;;;24.88;61.75;100487.69;5003402;28;20046;-63
2023/09/21 07:09:35;;;;;;;6.68;4.53;;;;;;;24.93;61.51;100488.00;5009352;28;20054;-60
2023/09/21 07:12:04;;;;;;;6.40;4.22;;;;;;;24.97;61.52;100494.75;5010546;28;20408;-62
2023/09/21 07:14:36;;;;;;;4.50;3.90;;;;;;;25.00;61.20;100507.94;5010290;28;20061;-62
2023/09/21 07:17:05;;;;;;;7.15;4.50;;;;;;;25.01;61.08;100512.31;5007515;28;20054;-61
2023/09/21 07:19:36;;;;;;;7.78;5.18;;;;;;;25.03;61.22;100514.84;5010609;28;20053;-65
2023/09/21 07:22:04;;;;;;;7.57;4.75;;;;;;;25.03;61.20;100499.44;5009001;28;20041;-60
2023/09/21 07:24:32;;;;;;;6.68;5.38;;;;;;;25.06;61.21;100507.22;5004302;28;20067;-67
2023/09/21 07:27:00;;;;;;;7.57;4.75;;;;;;;25.06;60.83;100504.50;5007588;28;20408;-63
2023/09/21 07:29:30;;;;;;;11.57;7.30;;;;;;;25.05;60.57;100507.41;5009951;28;20050;-57
2023/09/21 07:31:59;;;;;;;12.23;9.50;;;;;;;24.98;60.50;100507.25;5009729;28;20042;-58
2023/09/21 07:34:27;;;;;;;16.13;12.20;;;;;;;24.82;60.37;100500.06;5007521;28;20073;-57
2023/09/21 07:36:56;;;;;;;15.02;12.30;;;;;;;24.69;60.59;100509.75;5007951;28;20065;-62
2023/09/21 07:39:23;;;;;;;18.13;11.93;;;;;;;24.52;60.84;100512.53;5009917;28;20060;-55
2023/09/21 07:41:53;;;;;;;14.07;10.65;;;;;;;24.44;61.20;100509.00;5010036;28;20042;-58
2023/09/21 07:44:22;;;;;;;15.38;11.35;;;;;;;24.35;61.42;100513.56;5006877;28;20070;-58
2023/09/21 07:46:52;;;;;;;12.38;9.77;;;;;;;24.28;61.77;100509.84;5006999;28;20497;-59
2023/09/21 07:49:20;;;;;;;12.15;9.00;;;;;;;24.25;61.99;100523.72;5007786;28;20489;-63
2023/09/21 07:51:48;;;;;;;11.32;8.18;;;;;;;24.24;61.74;100519.31;5009431;28;20053;-60
2023/09/21 07:54:16;;;;;;;11.00;8.82;;;;;;;24.24;61.79;100519.31;5005915;28;20046;-62
2023/09/21 07:56:45;;;;;;;12.70;8.38;;;;;;;24.25;61.72;100512.91;5008766;28;20475;-65
2023/09/21 07:59:13;;;;;;;13.15;8.98;;;;;;;24.23;61.73;100509.53;5009482;28;20046;-59
2023/09/21 08:01:40;;;;;;;11.63;8.52;;;;;;;24.23;62.00;100517.66;5005135;28;20042;-60
2023/09/21 08:04:08;;;;;;;10.77;8.65;;;;;;;24.24;62.02;100524.75;5005844;28;20050;-60
2023/09/21 08:06:36;;;;;;;10.85;8.30;;;;;;;24.26;62.31;100523.53;5003230;28;20054;-59
2023/09/21 08:09:04;;;;;;;10.07;7.28;;;;;;;24.31;61.93;100523.88;5009237;28;20042;-60
2023/09/21 08:11:51;;;;;;;10.93;7.97;;;;;;;24.36;62.00;100523.34;5004602;28;20052;-59
2023/09/21 08:14:19;;;;;;;11.82;8.38;;;;;;;24.41;61.96;100521.00;5007831;28;20054;-59
2023/09/21 08:16:46;;;;;;;12.13;7.63;;;;;;;24.44;61.70;100522.53;5009143;28;20050;-59
2023/09/21 08:19:15;;;;;;;10.20;7.05;;;;;;;24.46;61.92;100524.03;5004212;28;20053;-63
2023/09/21 08:21:42;;;;;;;9.07;6.80;;;;;;;24.48;61.81;100527.41;5005794;28;20042;-62
2023/09/21 08:24:10;;;;;;;12.55;8.38;;;;;;;24.51;61.69;100520.78;5003064;28;20110;-63
2023/09/21 08:26:37;;;;;;;10.63;8.45;;;;;;;24.54;61.52;100521.28;5009373;28;20050;-63
2023/09/21 08:29:05;;;;;;;11.45;7.47;;;;;;;24.54;61.67;100529.41;5009358;28;20061;-61
2023/09/21 08:31:33;;;;;;;17.13;10.75;;;;;;;24.56;62.02;100530.09;5005990;28;20097;-63
2023/09/21 08:34:01;;;;;;;10.82;8.35;;;;;;;24.55;61.67;100525.72;5007250;28;20046;-60
2023/09/21 08:36:28;;;;;;;10.48;7.40;;;;;;;24.55;61.67;100528.44;5008809;28;20061;-66
2023/09/21 08:38:56;;;;;;;9.13;7.03;;;;;;;24.56;61.57;100527.41;5009090;28;20050;-59
2023/09/21 08:41:27;;;;;;;11.27;7.10;;;;;;;24.58;61.86;100521.78;5006100;28;20061;-60
2023/09/21 08:43:55;;;;;;;8.85;7.20;;;;;;;24.61;61.54;100518.75;5008669;28;20263;-59
2023/09/21 08:46:23;;;;;;;10.57;7.97;;;;;;;24.64;61.45;100516.53;5009010;28;20057;-59
2023/09/21 08:48:51;;;;;;;10.02;7.60;;;;;;;24.67;61.50;100518.91;5009140;28;20408;-58
2023/09/21 08:51:19;;;;;;;9.00;6.85;;;;;;;24.71;61.45;100515.84;5005527;28;20054;-60
2023/09/21 08:53:50;;;;;;;8.38;6.82;;;;;;;24.74;61.23;100510.06;5004262;28;20046;-60
2023/09/21 08:56:21;;;;;;;8.73;6.97;;;;;;;24.77;61.18;100509.72;4999478;28;20054;-60
2023/09/21 08:58:52;;;;;;;13.07;8.43;;;;;;;24.77;61.11;100505.16;5007883;28;20046;-63
2023/09/21 09:01:20;;;;;;;12.82;10.93;;;;;;;24.76;61.41;100508.06;5002843;28;20042;-62
2023/09/21 09:03:49;;;;;;;11.23;9.75;;;;;;;24.70;61.49;100501.47;5008686;28;20408;-66
2023/09/21 09:06:17;;;;;;;14.15;11.25;;;;;;;24.63;61.53;100497.75;5008726;28;20041;-62
2023/09/21 09:08:46;;;;;;;13.55;10.77;;;;;;;24.60;61.72;100501.66;5010062;28;20488;-58
2023/09/21 09:11:45;;;;;;;14.05;10.07;;;;;;;24.55;61.84;100495.06;5009947;28;20046;-58
2023/09/21 09:14:19;;;;;;;17.17;13.30;;;;;;;24.47;62.03;100492.41;5004472;28;20409;-59
2023/09/21 09:16:47;;;;;;;15.27;10.82;;;;;;;24.45;62.38;100484.47;5009585;28;20507;-59
2023/09/21 09:19:14;;;;;;;14.98;9.85;;;;;;;24.46;62.09;100490.72;5011240;28;20043;-62
2023/09/21 09:21:44;;;;;;;10.15;8.45;;;;;;;24.48;62.36;100486.00;5012247;28;20419;-60
2023/09/21 09:24:13;;;;;;;12.23;8.23;;;;;;;24.52;62.36;100474.63;5012670;28;20046;-63
2023/09/21 09:26:42;;;;;;;9.20;7.03;;;;;;;24.58;62.12;100473.91;5008873;28;20069;-61
2023/09/21 09:29:12;;;;;;;7.57;6.05;;;;;;;24.65;62.04;100465.97;5011274;28;20400;-61
2023/09/21 09:31:41;;;;;;;9.55;5.22;;;;;;;24.72;61.97;100464.25;5012004;28;20057;-65
2023/09/21 09:34:16;;;;;;;8.73;6.00;;;;;;;24.78;61.67;100459.97;5007887;28;20046;-63
2023/09/21 09:36:46;;;;;;;8.30;5.60;;;;;;;24.84;61.73;100459.28;5006018;28;20058;-64
2023/09/21 09:39:15;;;;;;;9.30;5.55;;;;;;;24.88;61.40;100466.03;5011967;28;20072;-58
2023/09/21 09:41:43;;;;;;;7.60;5.30;;;;;;;24.92;61.33;100460.06;5011829;28;20045;-56
2023/09/21 09:44:14;;;;;;;6.88;4.93;;;;;;;24.96;61.10;100460.56;5008275;28;20052;-57
2023/09/21 09:46:44;;;;;;;6.95;4.13;;;;;;;25.00;61.20;100461.91;5009706;28;20062;-58
2023/09/21 09:49:13;;;;;;;7.03;4.47;;;;;;;25.02;60.98;100448.16;5012153;28;20052;-60
2023/09/21 09:51:44;;;;;;;8.25;3.97;;;;;;;25.05;60.95;100445.94;5011413;28;20050;-61
2023/09/21 09:54:17;;;;;;;7.03;4.03;;;;;;;25.08;60.60;100452.88;5008334;28;20050;-62
2023/09/21 09:56:46;;;;;;;6.85;4.30;;;;;;;25.10;60.60;100457.13;5023211;28;20062;-62
2023/09/21 09:59:15;;;;;;;6.53;3.70;;;;;;;25.10;60.42;100456.28;5031346;28;20141;-61
2023/09/21 10:01:44;;;;;;;7.88;4.45;;;;;;;25.12;60.40;100452.38;5030725;28;20052;-58
2023/09/21 10:04:14;;;;;;;8.35;3.88;;;;;;;25.14;60.25;100444.91;5027339;28;20044;-58
2023/09/21 10:06:42;;;;;;;5.93;3.83;;;;;;;25.15;60.35;100446.56;5030897;28;20049;-59
2023/09/21 10:09:10;;;;;;;7.70;4.30;;;;;;;25.17;60.13;100446.41;5031044;28;20045;-59
2023/09/21 10:11:42;;;;;;;6.57;4.05;;;;;;;25.19;59.74;100451.63;5030109;28;20072;-60
2023/09/21 10:14:13;;;;;;;6.60;4.43;;;;;;;25.20;59.61;100448.78;5028589;28;20350;-59
2023/09/21 10:16:49;;;;;;;5.13;3.88;;;;;;;25.22;59.21;100451.28;5030813;28;20056;-59
2023/09/21 10:19:17;;;;;;;6.68;4.10;;;;;;;25.21;59.41;100445.03;5030826;28;20064;-59
2023/09/21 10:21:45;;;;;;;7.40;4.70;;;;;;;25.22;59.22;100443.16;5027433;28;20049;-60
2023/09/21 10:24:13;;;;;;;7.65;4.25;;;;;;;25.23;59.00;100447.56;5030146;28;20038;-59
2023/09/21 10:26:49;;;;;;;6.00;4.20;;;;;;;25.24;59.06;100449.22;5030600;28;20056;-58
2023/09/21 10:29:28;;;;;;;6.05;5.03;;;;;;;25.25;58.95;100437.41;5029199;28;20056;-63
2023/09/21 10:32:00;;;;;;;7.00;4.43;;;;;;;25.23;58.71;100439.44;5029027;28;20052;-62
2023/09/21 10:34:29;;;;;;;7.43;4.27;;;;;;;25.22;58.91;100443.16;5027287;28;20037;-61
2023/09/21 10:37:10;;;;;;;6.43;4.07;;;;;;;25.23;58.54;100439.44;5030529;28;20125;-62
2023/09/21 10:39:39;;;;;;;6.45;4.72;;;;;;;25.25;58.64;100431.97;5024353;28;20518;-63
2023/09/21 10:42:07;;;;;;;5.50;4.55;;;;;;;25.26;58.53;100433.66;5030424;28;20388;-62
2023/09/21 10:44:53;;;;;;;6.88;4.55;;;;;;;25.28;58.52;100431.59;5030462;28;20064;-62
2023/09/21 10:47:22;;;;;;;4.72;4.00;;;;;;;25.28;58.61;100428.88;5026493;28;20592;-59
2023/09/21 10:49:50;;;;;;;6.82;4.38;;;;;;;25.30;58.74;100432.28;5028198;28;20049;-58
2023/09/21 10:52:18;;;;;;;6.25;4.05;;;;;;;25.31;58.57;100425.81;5030478;28;20376;-57
2023/09/21 10:54:45;;;;;;;5.25;4.35;;;;;;;25.31;58.49;100423.09;5029994;28;20072;-57
2023/09/21 10:57:13;;;;;;;5.47;3.75;;;;;;;25.31;58.53;100415.81;5026665;28;20408;-58
2023/09/21 10:59:42;;;;;;;6.15;4.20;;;;;;;25.31;58.62;100415.81;5029893;28;20411;-58
2023/09/21 11:02:16;;;;;;;6.28;4.18;;;;;;;25.32;58.43;100408.53;5021986;28;20056;-58
2023/09/21 11:04:44;;;;;;;5.72;3.85;;;;;;;25.33;58.53;100394.81;5028840;28;20052;-56
2023/09/21 11:07:13;;;;;;;5.07;4.00;;;;;;;25.34;58.48;100384.81;5026982;28;20488;-57
2023/09/21 11:09:43;;;;;;;5.97;3.65;;;;;;;25.34;58.54;100379.41;5029830;28;20053;-57
2023/09/21 11:12:13;;;;;;;4.78;3.72;;;;;;;25.35;58.61;100384.63;5029955;28;20045;-57
2023/09/21 11:14:44;;;;;;;7.75;4.53;;;;;;;25.35;58.54;100384.63;5028019;28;20052;-57
2023/09/21 11:17:12;;;;;;;5.40;4.25;;;;;;;25.34;58.38;100382.09;5026747;28;20534;-59
2023/09/21 11:19:42;;;;;;;5.60;3.95;;;;;;;25.36;58.49;100380.03;5029678;28;20041;-58
2023/09/21 11:22:10;;;;;;;4.82;3.58;;;;;;;25.38;58.71;100375.31;5029682;28;20045;-58
2023/09/21 11:24:37;;;;;;;7.70;3.83;;;;;;;25.36;58.45;100367.38;5026851;28;20056;-58
2023/09/21 11:27:11;;;;;;;5.45;3.92;;;;;;;25.37;58.65;100368.19;5028453;28;20046;-59
2023/09/21 11:29:41;;;;;;;5.97;3.85;;;;;;;25.38;58.47;100364.47;5029407;28;20052;-58
2023/09/21 11:32:17;;;;;;;5.72;3.95;;;;;;;25.37;57.69;100355.50;5029363;28;20056;-58
2023/09/21 11:34:45;;;;;;;5.63;4.07;;;;;;;25.39;57.82;100350.72;5023507;28;20050;-57